createdAt,value
2018-06-09T00:00:42.434Z,0.00
2018-06-09T00:01:42.364Z,0.00
2018-06-09T00:03:35.194Z,0.00
2018-06-09T00:04:35.141Z,0.00
2018-06-09T00:06:27.942Z,0.00
2018-06-09T00:07:27.868Z,0.00
2018-06-09T00:09:20.644Z,0.00
2018-06-09T00:10:20.572Z,0.00
2018-06-09T00:12:13.353Z,0.00
2018-06-09T00:13:13.304Z,0.00
2018-06-09T00:15:06.099Z,0.00
2018-06-09T00:16:06.021Z,0.00
2018-06-09T00:17:58.803Z,0.00
2018-06-09T00:18:58.729Z,0.00
2018-06-09T00:20:51.521Z,0.00
2018-06-09T00:21:51.463Z,0.00
2018-06-09T00:23:44.228Z,0.00
2018-06-09T00:24:44.164Z,0.00
2018-06-09T00:26:36.954Z,0.00
2018-06-09T00:27:36.884Z,0.00
2018-06-09T00:29:29.666Z,0.00
2018-06-09T00:30:29.646Z,0.00
2018-06-09T00:32:22.388Z,0.00
2018-06-09T00:33:22.320Z,0.00
2018-06-09T00:35:15.139Z,0.00
2018-06-09T00:36:15.038Z,0.00
2018-06-09T00:38:07.827Z,0.00
2018-06-09T00:39:07.759Z,0.00
2018-06-09T00:41:00.543Z,0.00
2018-06-09T00:42:00.479Z,0.00
2018-06-09T00:43:53.248Z,0.00
2018-06-09T00:44:53.219Z,0.00
2018-06-09T00:46:46.101Z,0.00
2018-06-09T00:47:46.023Z,0.00
2018-06-09T00:49:38.848Z,0.00
2018-06-09T00:50:38.755Z,0.00
2018-06-09T00:52:31.559Z,0.00
2018-06-09T00:53:31.475Z,0.00
2018-06-09T00:55:24.250Z,0.00
2018-06-09T00:56:24.189Z,0.00
2018-06-09T00:58:16.975Z,0.00
2018-06-09T00:59:16.916Z,0.00
2018-06-09T01:01:09.689Z,0.00
2018-06-09T01:02:09.629Z,0.00
2018-06-09T01:04:02.431Z,0.00
2018-06-09T01:05:02.356Z,0.00
2018-06-09T01:06:55.166Z,0.00
2018-06-09T01:07:55.076Z,0.00
2018-06-09T01:09:47.849Z,0.00
2018-06-09T01:10:47.787Z,0.00
2018-06-09T01:12:40.575Z,0.00
2018-06-09T01:13:40.501Z,0.00
2018-06-09T01:15:33.282Z,0.00
2018-06-09T01:16:33.223Z,0.00
2018-06-09T01:18:26.021Z,0.00
2018-06-09T01:19:25.942Z,0.00
2018-06-09T01:21:18.725Z,0.00
2018-06-09T01:22:18.662Z,0.00
2018-06-09T01:24:11.481Z,0.00
2018-06-09T01:25:11.388Z,0.00
2018-06-09T01:27:04.170Z,0.00
2018-06-09T01:28:04.107Z,0.00
2018-06-09T01:29:56.909Z,0.00
2018-06-09T01:30:56.831Z,0.00
2018-06-09T01:32:49.611Z,0.00
2018-06-09T01:33:49.567Z,0.00
2018-06-09T01:35:42.321Z,0.00
2018-06-09T01:36:42.253Z,0.00
2018-06-09T01:38:35.040Z,0.00
2018-06-09T01:39:34.976Z,0.00
2018-06-09T01:41:27.738Z,0.00
2018-06-09T01:42:27.685Z,0.00
2018-06-09T01:44:20.466Z,0.00
2018-06-09T01:45:20.395Z,0.00
2018-06-09T01:47:13.170Z,0.00
2018-06-09T01:48:13.103Z,0.00
2018-06-09T01:50:05.894Z,0.00
2018-06-09T01:51:05.817Z,0.00
2018-06-09T01:52:58.646Z,0.00
2018-06-09T01:53:58.584Z,0.00
2018-06-09T01:55:51.399Z,0.00
2018-06-09T01:56:51.324Z,0.00
2018-06-09T01:58:44.080Z,0.00
2018-06-09T01:59:44.015Z,0.00
2018-06-09T02:01:36.840Z,0.00
2018-06-09T02:02:36.767Z,0.00
2018-06-09T02:04:29.610Z,0.00
2018-06-09T02:05:29.526Z,0.00
2018-06-09T02:07:22.326Z,0.00
2018-06-09T02:08:22.261Z,0.00
2018-06-09T02:10:15.042Z,0.00
2018-06-09T02:11:14.983Z,0.00
2018-06-09T02:13:07.771Z,0.00
2018-06-09T02:14:07.710Z,0.00
2018-06-09T02:16:00.541Z,0.00
2018-06-09T02:17:00.475Z,0.00
2018-06-09T02:18:53.278Z,0.00
2018-06-09T02:19:53.210Z,0.00
2018-06-09T02:21:46.056Z,0.00
2018-06-09T02:22:45.943Z,0.00
2018-06-09T02:24:38.753Z,0.00
2018-06-09T02:25:38.672Z,0.00
2018-06-09T02:27:31.470Z,0.00
2018-06-09T02:28:31.424Z,0.00
2018-06-09T02:30:24.288Z,0.00
2018-06-09T02:31:24.148Z,0.00
2018-06-09T02:33:16.907Z,0.00
2018-06-09T02:34:16.847Z,0.00
2018-06-09T02:36:09.639Z,0.00
2018-06-09T02:37:09.557Z,0.00
2018-06-09T02:39:02.353Z,0.00
2018-06-09T02:40:02.280Z,0.00
2018-06-09T02:41:55.173Z,0.00
2018-06-09T02:42:55.053Z,0.00
2018-06-09T02:44:47.850Z,0.00
2018-06-09T02:45:47.787Z,0.00
2018-06-09T02:47:40.583Z,0.00
2018-06-09T02:48:40.505Z,0.00
2018-06-09T02:50:33.279Z,0.00
2018-06-09T02:51:33.223Z,5.63
2018-06-09T02:53:25.994Z,5.63
2018-06-09T02:54:25.926Z,5.63
2018-06-09T02:56:18.710Z,5.63
2018-06-09T02:57:18.645Z,5.63
2018-06-09T02:59:11.411Z,5.63
2018-06-09T03:00:11.357Z,5.63
2018-06-09T03:02:04.147Z,11.25
2018-06-09T03:03:04.065Z,11.25
2018-06-09T03:04:56.938Z,11.25
2018-06-09T03:05:56.793Z,11.25
2018-06-09T03:07:49.579Z,16.88
2018-06-09T03:08:49.498Z,16.88
2018-06-09T03:10:42.301Z,16.88
2018-06-09T03:11:42.237Z,22.50
2018-06-09T03:13:35.026Z,22.50
2018-06-09T03:14:34.948Z,22.50
2018-06-09T03:16:27.756Z,22.50
2018-06-09T03:17:27.684Z,28.13
2018-06-09T03:19:20.509Z,28.13
2018-06-09T03:20:20.400Z,28.13
2018-06-09T03:22:13.214Z,33.75
2018-06-09T03:23:13.123Z,33.75
2018-06-09T03:25:05.945Z,33.75
2018-06-09T03:26:05.880Z,39.38
2018-06-09T03:27:58.672Z,39.38
2018-06-09T03:28:58.601Z,45.00
2018-06-09T03:30:51.389Z,45.00
2018-06-09T03:31:51.315Z,50.63
2018-06-09T03:33:44.113Z,50.63
2018-06-09T03:34:44.039Z,56.25
2018-06-09T03:36:36.822Z,61.88
2018-06-09T03:37:36.755Z,61.88
2018-06-09T03:39:29.577Z,67.50
2018-06-09T03:40:29.500Z,67.50
2018-06-09T03:42:23.108Z,67.50
2018-06-09T03:43:23.090Z,67.50
2018-06-09T03:45:16.057Z,73.13
2018-06-09T03:46:15.855Z,73.13
2018-06-09T03:48:08.675Z,67.50
2018-06-09T03:49:08.572Z,67.50
2018-06-09T03:51:01.348Z,67.50
2018-06-09T03:52:01.287Z,67.50
2018-06-09T03:53:54.075Z,67.50
2018-06-09T03:54:53.997Z,67.50
2018-06-09T03:56:46.776Z,67.50
2018-06-09T03:57:46.717Z,67.50
2018-06-09T03:59:39.549Z,67.50
2018-06-09T04:00:39.463Z,67.50
2018-06-09T04:02:32.382Z,73.13
2018-06-09T04:03:32.401Z,73.13
2018-06-09T04:05:25.150Z,73.13
2018-06-09T04:06:25.030Z,73.13
2018-06-09T04:08:17.823Z,73.13
2018-06-09T04:09:17.759Z,73.13
2018-06-09T04:11:10.568Z,73.13
2018-06-09T04:12:10.496Z,78.75
2018-06-09T04:14:03.307Z,78.75
2018-06-09T04:15:03.243Z,78.75
2018-06-09T04:16:56.073Z,78.75
2018-06-09T04:17:55.996Z,78.75
2018-06-09T04:19:48.974Z,78.75
2018-06-09T04:20:48.913Z,78.75
2018-06-09T04:22:41.727Z,84.38
2018-06-09T04:23:41.650Z,84.38
2018-06-09T04:25:34.437Z,90.00
2018-06-09T04:26:34.355Z,90.00
2018-06-09T04:28:27.131Z,95.63
2018-06-09T04:29:27.121Z,101.25
2018-06-09T04:31:19.937Z,101.25
2018-06-09T04:32:19.795Z,101.25
2018-06-09T04:34:12.590Z,106.88
2018-06-09T04:35:12.504Z,112.50
2018-06-09T04:37:05.306Z,118.13
2018-06-09T04:38:05.235Z,123.75
2018-06-09T04:39:58.071Z,129.38
2018-06-09T04:40:57.968Z,135.00
2018-06-09T04:42:50.760Z,146.25
2018-06-09T04:43:50.686Z,146.25
2018-06-09T04:45:43.452Z,157.50
2018-06-09T04:46:43.398Z,219.38
2018-06-09T04:48:36.201Z,630.00
2018-06-09T04:49:36.204Z,838.13
2018-06-09T04:51:28.983Z,888.75
2018-06-09T04:52:28.891Z,849.38
2018-06-09T04:54:21.687Z,843.75
2018-06-09T04:55:21.603Z,815.63
2018-06-09T04:57:14.386Z,821.25
2018-06-09T04:58:14.350Z,770.63
2018-06-09T05:00:07.088Z,720.00
2018-06-09T05:01:07.026Z,776.25
2018-06-09T05:02:59.827Z,658.13
2018-06-09T05:03:59.760Z,658.13
2018-06-09T05:05:52.536Z,663.75
2018-06-09T05:06:52.545Z,646.88
2018-06-09T05:08:45.317Z,596.25
2018-06-09T05:09:45.241Z,556.88
2018-06-09T05:11:38.062Z,556.88
2018-06-09T05:12:38.001Z,534.38
2018-06-09T05:14:30.818Z,534.38
2018-06-09T05:15:30.740Z,523.13
2018-06-09T05:17:23.597Z,500.63
2018-06-09T05:18:23.507Z,489.38
2018-06-09T05:20:16.281Z,478.13
2018-06-09T05:21:16.189Z,466.88
2018-06-09T05:23:08.977Z,472.50
2018-06-09T05:24:08.989Z,466.88
2018-06-09T05:26:01.733Z,466.88
2018-06-09T05:27:01.661Z,461.25
2018-06-09T05:28:54.698Z,461.25
2018-06-09T05:29:54.596Z,461.25
2018-06-09T05:31:47.462Z,466.88
2018-06-09T05:32:47.303Z,472.50
2018-06-09T05:34:40.141Z,466.88
2018-06-09T05:35:40.086Z,461.25
2018-06-09T05:37:32.886Z,461.25
2018-06-09T05:38:32.845Z,461.25
2018-06-09T05:40:25.651Z,461.25
2018-06-09T05:41:25.586Z,461.25
2018-06-09T05:43:18.405Z,466.88
2018-06-09T05:44:18.354Z,472.50
2018-06-09T05:46:11.190Z,466.88
2018-06-09T05:47:11.118Z,461.25
2018-06-09T05:49:03.943Z,472.50
2018-06-09T05:50:03.879Z,478.13
2018-06-09T05:51:56.876Z,472.50
2018-06-09T05:52:56.787Z,466.88
2018-06-09T05:54:49.618Z,450.00
2018-06-09T05:55:49.555Z,461.25
2018-06-09T05:57:42.355Z,466.88
2018-06-09T05:58:42.297Z,472.50
2018-06-09T06:00:35.123Z,500.63
2018-06-09T06:01:35.071Z,506.25
2018-06-09T06:03:27.849Z,517.50
2018-06-09T06:04:27.800Z,523.13
2018-06-09T06:06:21.013Z,534.38
2018-06-09T06:07:20.598Z,545.63
2018-06-09T06:09:13.366Z,573.75
2018-06-09T06:10:13.305Z,590.63
2018-06-09T06:12:06.132Z,641.25
2018-06-09T06:13:06.090Z,669.38
2018-06-09T06:14:58.873Z,759.38
2018-06-09T06:15:58.813Z,832.50
2018-06-09T06:17:51.659Z,1181.25
2018-06-09T06:18:51.587Z,1372.50
2018-06-09T06:20:44.421Z,1558.13
2018-06-09T06:21:44.353Z,1552.50
2018-06-09T06:23:37.192Z,1575.00
2018-06-09T06:24:37.074Z,1681.88
2018-06-09T06:26:30.093Z,2238.75
2018-06-09T06:27:29.821Z,2238.75
2018-06-09T06:29:22.672Z,2475.00
2018-06-09T06:30:22.620Z,2773.13
2018-06-09T06:32:15.436Z,3802.50
2018-06-09T06:33:15.363Z,3566.25
2018-06-09T06:35:08.164Z,3003.75
2018-06-09T06:36:08.237Z,2806.88
2018-06-09T06:38:00.916Z,2503.13
2018-06-09T06:39:00.850Z,2525.63
2018-06-09T06:40:53.689Z,2075.63
2018-06-09T06:41:53.641Z,1974.38
2018-06-09T06:43:46.471Z,2131.88
2018-06-09T06:44:46.411Z,1884.38
2018-06-09T06:46:39.241Z,1777.50
2018-06-09T06:47:39.192Z,1800.00
2018-06-09T06:49:32.015Z,1726.88
2018-06-09T06:50:32.016Z,1631.25
2018-06-09T06:52:24.759Z,1423.13
2018-06-09T06:53:24.716Z,1423.13
2018-06-09T06:55:17.572Z,1440.00
2018-06-09T06:56:17.506Z,1524.38
2018-06-09T06:58:10.345Z,1310.63
2018-06-09T06:59:10.268Z,1305.00
2018-06-09T07:01:03.058Z,1406.25
2018-06-09T07:02:03.074Z,1395.00
2018-06-09T07:03:55.869Z,1321.88
2018-06-09T07:04:55.832Z,1316.25
2018-06-09T07:06:48.596Z,1321.88
2018-06-09T07:07:48.545Z,1226.25
2018-06-09T07:09:41.355Z,1248.75
2018-06-09T07:10:41.311Z,1316.25
2018-06-09T07:12:35.000Z,1389.38
2018-06-09T07:13:35.003Z,1316.25
2018-06-09T07:15:27.754Z,1355.63
2018-06-09T07:16:27.704Z,1417.50
2018-06-09T07:18:20.530Z,1614.38
2018-06-09T07:19:20.455Z,1631.25
2018-06-09T07:21:13.407Z,1513.13
2018-06-09T07:22:13.260Z,1563.75
2018-06-09T07:24:06.060Z,1653.75
2018-06-09T07:25:05.981Z,1653.75
2018-06-09T07:26:58.801Z,1895.63
2018-06-09T07:27:58.751Z,1935.00
2018-06-09T07:29:51.615Z,1985.63
2018-06-09T07:30:51.556Z,2058.75
2018-06-09T07:32:44.355Z,2700.00
2018-06-09T07:33:44.312Z,3009.38
2018-06-09T07:35:37.253Z,3037.50
2018-06-09T07:36:37.085Z,3093.75
2018-06-09T07:38:29.910Z,3223.13
2018-06-09T07:39:29.839Z,3138.75
2018-06-09T07:41:22.676Z,2880.00
2018-06-09T07:42:22.617Z,2941.88
2018-06-09T07:44:15.496Z,2812.50
2018-06-09T07:45:15.449Z,2728.13
2018-06-09T07:47:08.293Z,2739.38
2018-06-09T07:48:08.242Z,2626.88
2018-06-09T07:50:01.054Z,2694.38
2018-06-09T07:51:00.993Z,2700.00
2018-06-09T07:52:53.824Z,2683.13
2018-06-09T07:53:53.754Z,2677.50
2018-06-09T07:55:46.567Z,2435.63
2018-06-09T07:56:46.509Z,2278.13
2018-06-09T07:58:39.357Z,2390.63
2018-06-09T07:59:39.339Z,2289.38
2018-06-09T08:01:32.137Z,2266.88
2018-06-09T08:02:32.076Z,2390.63
2018-06-09T08:04:24.905Z,2525.63
2018-06-09T08:05:24.859Z,2396.25
2018-06-09T08:07:17.705Z,2407.50
2018-06-09T08:08:17.630Z,2300.63
2018-06-09T08:10:10.435Z,2126.25
2018-06-09T08:11:10.400Z,2233.13
2018-06-09T08:13:03.229Z,2362.50
2018-06-09T08:14:03.248Z,2334.38
2018-06-09T08:15:55.958Z,2311.88
2018-06-09T08:16:55.914Z,2430.00
2018-06-09T08:18:48.720Z,2503.13
2018-06-09T08:19:48.658Z,2514.38
2018-06-09T08:21:41.502Z,2632.50
2018-06-09T08:22:41.405Z,2598.75
2018-06-09T08:24:34.224Z,2424.38
2018-06-09T08:25:34.190Z,2435.63
2018-06-09T08:27:26.984Z,2694.38
2018-06-09T08:28:26.933Z,2694.38
2018-06-09T08:30:19.815Z,2722.50
2018-06-09T08:31:19.826Z,2756.25
2018-06-09T08:33:12.596Z,2790.00
2018-06-09T08:34:12.537Z,2716.88
2018-06-09T08:36:05.415Z,2711.25
2018-06-09T08:37:05.305Z,2801.25
2018-06-09T08:38:58.171Z,2835.00
2018-06-09T08:39:58.101Z,2812.50
2018-06-09T08:41:51.000Z,2930.63
2018-06-09T08:42:50.946Z,2919.38
2018-06-09T08:44:43.845Z,2857.50
2018-06-09T08:45:43.804Z,2964.38
2018-06-09T08:47:36.631Z,2846.25
2018-06-09T08:48:36.578Z,2806.88
2018-06-09T08:50:29.517Z,2790.00
2018-06-09T08:51:29.404Z,2880.00
2018-06-09T08:53:22.205Z,2880.00
2018-06-09T08:54:22.159Z,2874.38
2018-06-09T08:56:14.980Z,2930.63
2018-06-09T08:57:14.933Z,2964.38
2018-06-09T08:59:07.761Z,2868.75
2018-06-09T09:00:07.695Z,2846.25
2018-06-09T09:02:00.521Z,2683.13
2018-06-09T09:03:00.475Z,2846.25
2018-06-09T09:04:53.339Z,2761.88
2018-06-09T09:05:53.268Z,1878.75
2018-06-09T09:07:46.085Z,2413.13
2018-06-09T09:08:46.057Z,675.00
2018-06-09T09:10:38.884Z,517.50
2018-06-09T09:11:38.821Z,478.13
2018-06-09T09:13:31.638Z,455.63
2018-06-09T09:14:31.570Z,455.63
2018-06-09T09:16:24.402Z,444.38
2018-06-09T09:17:24.329Z,438.75
2018-06-09T09:19:17.157Z,399.38
2018-06-09T09:20:17.089Z,427.50
2018-06-09T09:22:09.935Z,421.88
2018-06-09T09:23:09.928Z,416.25
2018-06-09T09:25:02.702Z,388.13
2018-06-09T09:26:02.649Z,388.13
2018-06-09T09:27:55.454Z,388.13
2018-06-09T09:28:55.415Z,382.50
2018-06-09T09:30:48.274Z,382.50
2018-06-09T09:31:48.224Z,376.88
2018-06-09T09:33:41.021Z,376.88
2018-06-09T09:34:40.986Z,371.25
2018-06-09T09:36:33.821Z,360.00
2018-06-09T09:37:33.752Z,354.38
2018-06-09T09:39:26.707Z,348.75
2018-06-09T09:40:26.519Z,354.38
2018-06-09T09:42:21.588Z,331.88
2018-06-09T09:43:21.514Z,315.00
2018-06-09T09:45:14.562Z,320.63
2018-06-09T09:46:14.293Z,315.00
2018-06-09T09:48:07.118Z,303.75
2018-06-09T09:49:07.044Z,298.13
2018-06-09T09:50:59.865Z,292.50
2018-06-09T09:51:59.815Z,286.88
2018-06-09T09:53:52.648Z,286.88
2018-06-09T09:54:52.624Z,281.25
2018-06-09T09:56:45.448Z,270.00
2018-06-09T09:57:45.344Z,270.00
2018-06-09T09:59:38.158Z,270.00
2018-06-09T10:00:38.111Z,258.75
2018-06-09T10:02:30.991Z,253.13
2018-06-09T10:03:30.907Z,253.13
2018-06-09T10:05:23.713Z,247.50
2018-06-09T10:06:23.676Z,247.50
2018-06-09T10:08:16.581Z,241.88
2018-06-09T10:09:16.505Z,241.88
2018-06-09T10:11:09.353Z,241.88
2018-06-09T10:12:09.249Z,236.25
2018-06-09T10:14:02.054Z,230.63
2018-06-09T10:15:02.004Z,236.25
2018-06-09T10:16:54.856Z,225.00
2018-06-09T10:17:54.779Z,230.63
2018-06-09T10:19:47.676Z,219.38
2018-06-09T10:20:47.537Z,219.38
2018-06-09T10:22:40.430Z,213.75
2018-06-09T10:23:40.347Z,213.75
2018-06-09T10:25:33.177Z,213.75
2018-06-09T10:26:33.112Z,213.75
2018-06-09T10:28:25.927Z,208.13
2018-06-09T10:29:25.890Z,208.13
2018-06-09T10:31:18.660Z,208.13
2018-06-09T10:32:18.600Z,208.13
2018-06-09T10:34:11.425Z,208.13
2018-06-09T10:35:11.355Z,202.50
2018-06-09T10:37:04.338Z,196.88
2018-06-09T10:38:04.199Z,202.50
2018-06-09T10:39:56.984Z,202.50
2018-06-09T10:40:56.935Z,202.50
2018-06-09T10:42:49.782Z,196.88
2018-06-09T10:43:49.703Z,196.88
2018-06-09T10:45:42.530Z,196.88
2018-06-09T10:46:42.485Z,196.88
2018-06-09T10:48:35.304Z,196.88
2018-06-09T10:49:35.240Z,196.88
2018-06-09T10:51:28.036Z,191.25
2018-06-09T10:52:27.986Z,191.25
2018-06-09T10:54:20.808Z,191.25
2018-06-09T10:55:20.750Z,191.25
2018-06-09T10:57:13.594Z,191.25
2018-06-09T10:58:13.545Z,191.25
2018-06-09T11:00:06.340Z,191.25
2018-06-09T11:01:06.278Z,191.25
2018-06-09T11:02:59.097Z,191.25
2018-06-09T11:03:59.022Z,185.63
2018-06-09T11:05:51.858Z,185.63
2018-06-09T11:06:51.788Z,185.63
2018-06-09T11:08:44.609Z,185.63
2018-06-09T11:09:44.543Z,185.63
2018-06-09T11:11:37.321Z,185.63
2018-06-09T11:12:37.272Z,185.63
2018-06-09T11:14:30.125Z,180.00
2018-06-09T11:15:30.054Z,185.63
2018-06-09T11:17:22.844Z,185.63
2018-06-09T11:18:22.835Z,185.63
2018-06-09T11:20:15.609Z,185.63
2018-06-09T11:21:15.555Z,185.63
2018-06-09T11:23:08.372Z,185.63
2018-06-09T11:24:08.313Z,185.63
2018-06-09T11:26:01.135Z,185.63
2018-06-09T11:27:01.055Z,185.63
2018-06-09T11:28:53.968Z,180.00
2018-06-09T11:29:53.906Z,180.00
2018-06-09T11:31:46.712Z,180.00
2018-06-09T11:32:46.651Z,180.00
2018-06-09T11:34:39.505Z,174.38
2018-06-09T11:35:39.421Z,174.38
2018-06-09T11:37:32.308Z,174.38
2018-06-09T11:38:32.183Z,174.38
2018-06-09T11:40:25.031Z,174.38
2018-06-09T11:41:24.992Z,174.38
2018-06-09T11:43:17.809Z,168.75
2018-06-09T11:44:17.769Z,168.75
2018-06-09T11:46:10.641Z,163.13
2018-06-09T11:47:10.631Z,163.13
2018-06-09T11:49:03.443Z,163.13
2018-06-09T11:50:03.415Z,163.13
2018-06-09T11:51:56.245Z,163.13
2018-06-09T11:52:56.125Z,163.13
2018-06-09T11:54:49.020Z,157.50
2018-06-09T11:55:48.900Z,157.50
2018-06-09T11:57:41.707Z,157.50
2018-06-09T11:58:41.736Z,157.50
2018-06-09T12:00:34.483Z,157.50
2018-06-09T12:01:34.384Z,157.50
2018-06-09T12:03:27.181Z,157.50
2018-06-09T12:04:27.118Z,157.50
2018-06-09T12:06:20.014Z,157.50
2018-06-09T12:07:19.947Z,157.50
2018-06-09T12:09:12.735Z,157.50
2018-06-09T12:10:12.677Z,157.50
2018-06-09T12:12:05.482Z,157.50
2018-06-09T12:13:05.416Z,151.88
2018-06-09T12:14:58.222Z,151.88
2018-06-09T12:15:58.166Z,157.50
2018-06-09T12:17:50.968Z,151.88
2018-06-09T12:18:50.895Z,157.50
2018-06-09T12:20:43.735Z,157.50
2018-06-09T12:21:43.695Z,157.50
2018-06-09T12:23:36.478Z,157.50
2018-06-09T12:24:36.415Z,163.13
2018-06-09T12:26:29.250Z,157.50
2018-06-09T12:27:29.181Z,157.50
2018-06-09T12:29:21.981Z,157.50
2018-06-09T12:30:21.942Z,157.50
2018-06-09T12:32:14.830Z,157.50
2018-06-09T12:33:14.720Z,163.13
2018-06-09T12:35:07.556Z,163.13
2018-06-09T12:36:07.489Z,163.13
2018-06-09T12:38:00.297Z,168.75
2018-06-09T12:39:00.225Z,157.50
2018-06-09T12:40:53.033Z,163.13
2018-06-09T12:41:52.968Z,163.13
2018-06-09T12:43:45.926Z,163.13
2018-06-09T12:44:45.708Z,163.13
2018-06-09T12:46:38.541Z,163.13
2018-06-09T12:47:38.462Z,163.13
2018-06-09T12:49:31.344Z,163.13
2018-06-09T12:50:31.193Z,163.13
2018-06-09T12:52:24.041Z,157.50
2018-06-09T12:53:23.931Z,163.13
2018-06-09T12:55:16.791Z,163.13
2018-06-09T12:56:16.694Z,157.50
2018-06-09T12:58:09.501Z,163.13
2018-06-09T12:59:09.435Z,163.13
2018-06-09T13:01:02.227Z,163.13
2018-06-09T13:02:02.164Z,163.13
2018-06-09T13:03:55.023Z,163.13
2018-06-09T13:04:54.944Z,163.13
2018-06-09T13:06:47.774Z,163.13
2018-06-09T13:07:47.698Z,163.13
2018-06-09T13:09:40.503Z,168.75
2018-06-09T13:10:40.417Z,168.75
2018-06-09T13:12:33.219Z,174.38
2018-06-09T13:13:33.175Z,174.38
2018-06-09T13:15:25.976Z,174.38
2018-06-09T13:16:25.927Z,174.38
2018-06-09T13:18:18.765Z,180.00
2018-06-09T13:19:18.710Z,180.00
2018-06-09T13:21:11.474Z,174.38
2018-06-09T13:22:11.456Z,174.38
2018-06-09T13:24:04.288Z,168.75
2018-06-09T13:25:04.211Z,168.75
2018-06-09T13:26:57.200Z,168.75
2018-06-09T13:27:57.114Z,168.75
2018-06-09T13:29:49.912Z,168.75
2018-06-09T13:30:49.840Z,163.13
2018-06-09T13:32:42.674Z,163.13
2018-06-09T13:33:42.624Z,163.13
2018-06-09T13:35:35.479Z,163.13
2018-06-09T13:36:35.369Z,163.13
2018-06-09T13:38:28.163Z,163.13
2018-06-09T13:39:28.103Z,168.75
2018-06-09T13:41:21.028Z,168.75
2018-06-09T13:42:20.912Z,168.75
2018-06-09T13:44:14.047Z,168.75
2018-06-09T13:45:13.897Z,168.75
2018-06-09T13:47:06.669Z,168.75
2018-06-09T13:48:06.660Z,168.75
2018-06-09T13:49:59.422Z,174.38
2018-06-09T13:50:59.360Z,174.38
2018-06-09T13:52:52.183Z,180.00
2018-06-09T13:53:52.118Z,180.00
2018-06-09T13:55:44.919Z,174.38
2018-06-09T13:56:44.845Z,174.38
2018-06-09T13:58:37.648Z,174.38
2018-06-09T13:59:37.659Z,168.75
2018-06-09T14:01:30.500Z,168.75
2018-06-09T14:02:30.402Z,168.75
2018-06-09T14:04:23.247Z,168.75
2018-06-09T14:05:23.149Z,168.75
2018-06-09T14:07:15.975Z,168.75
2018-06-09T14:08:15.874Z,168.75
2018-06-09T14:10:08.805Z,168.75
2018-06-09T14:11:08.679Z,168.75
2018-06-09T14:13:01.536Z,168.75
2018-06-09T14:14:01.478Z,168.75
2018-06-09T14:15:54.308Z,168.75
2018-06-09T14:16:54.265Z,168.75
2018-06-09T14:18:47.039Z,174.38
2018-06-09T14:19:46.975Z,174.38
2018-06-09T14:21:39.802Z,174.38
2018-06-09T14:22:39.719Z,174.38
2018-06-09T14:24:32.516Z,168.75
2018-06-09T14:25:32.450Z,168.75
2018-06-09T14:27:25.404Z,168.75
2018-06-09T14:28:25.268Z,168.75
2018-06-09T14:30:18.069Z,168.75
2018-06-09T14:31:18.008Z,168.75
2018-06-09T14:33:10.919Z,168.75
2018-06-09T14:34:10.786Z,168.75
2018-06-09T14:36:03.589Z,168.75
2018-06-09T14:37:03.510Z,168.75
2018-06-09T14:38:56.296Z,168.75
2018-06-09T14:39:56.247Z,168.75
2018-06-09T14:41:49.160Z,174.38
2018-06-09T14:42:49.050Z,174.38
2018-06-09T14:44:41.808Z,174.38
2018-06-09T14:45:41.764Z,168.75
2018-06-09T14:47:34.586Z,163.13
2018-06-09T14:48:34.509Z,163.13
2018-06-09T14:50:27.309Z,163.13
2018-06-09T14:51:27.361Z,163.13
2018-06-09T14:53:20.074Z,163.13
2018-06-09T14:54:19.994Z,163.13
2018-06-09T14:56:12.859Z,163.13
2018-06-09T14:57:12.785Z,163.13
2018-06-09T14:59:05.635Z,163.13
2018-06-09T15:00:05.569Z,163.13
2018-06-09T15:01:58.374Z,168.75
2018-06-09T15:02:58.319Z,168.75
2018-06-09T15:04:51.181Z,174.38
2018-06-09T15:05:51.105Z,180.00
2018-06-09T15:07:44.124Z,185.63
2018-06-09T15:08:44.279Z,185.63
2018-06-09T15:10:36.851Z,180.00
2018-06-09T15:11:36.825Z,174.38
2018-06-09T15:13:30.251Z,168.75
2018-06-09T15:14:29.581Z,168.75
2018-06-09T15:16:22.341Z,163.13
2018-06-09T15:17:22.285Z,174.38
2018-06-09T15:19:15.146Z,163.13
2018-06-09T15:20:15.017Z,163.13
2018-06-09T15:22:07.850Z,163.13
2018-06-09T15:23:07.816Z,163.13
2018-06-09T15:25:00.602Z,168.75
2018-06-09T15:26:00.529Z,168.75
2018-06-09T15:27:53.396Z,168.75
2018-06-09T15:28:53.327Z,168.75
2018-06-09T15:30:46.170Z,168.75
2018-06-09T15:31:46.088Z,168.75
2018-06-09T15:33:39.050Z,151.88
2018-06-09T15:34:38.828Z,151.88
2018-06-09T15:36:31.630Z,151.88
2018-06-09T15:37:31.586Z,151.88
2018-06-09T15:39:24.390Z,151.88
2018-06-09T15:40:24.366Z,151.88
2018-06-09T15:42:17.137Z,106.88
2018-06-09T15:43:17.060Z,90.00
2018-06-09T15:45:36.101Z,101.25
2018-06-09T15:46:36.042Z,140.63
2018-06-09T15:48:28.848Z,151.88
2018-06-09T15:49:28.795Z,151.88
2018-06-09T15:51:21.599Z,146.25
2018-06-09T15:52:21.537Z,140.63
2018-06-09T15:54:14.350Z,140.63
2018-06-09T15:55:14.278Z,146.25
2018-06-09T15:57:07.074Z,135.00
2018-06-09T15:58:07.018Z,135.00
2018-06-09T15:59:59.817Z,135.00
2018-06-09T16:00:59.753Z,135.00
2018-06-09T16:02:52.622Z,78.75
2018-06-09T16:03:52.545Z,78.75
2018-06-09T16:05:45.332Z,78.75
2018-06-09T16:06:45.268Z,78.75
2018-06-09T16:08:38.094Z,78.75
2018-06-09T16:09:38.036Z,78.75
2018-06-09T16:11:30.868Z,84.38
2018-06-09T16:12:30.787Z,118.13
2018-06-09T16:14:23.591Z,135.00
2018-06-09T16:15:23.536Z,135.00
2018-06-09T16:17:16.340Z,129.38
2018-06-09T16:18:16.285Z,135.00
2018-06-09T16:20:09.111Z,135.00
2018-06-09T16:21:09.073Z,129.38
2018-06-09T16:23:01.861Z,129.38
2018-06-09T16:24:01.857Z,129.38
2018-06-09T16:25:54.605Z,129.38
2018-06-09T16:26:54.523Z,129.38
2018-06-09T16:28:47.342Z,129.38
2018-06-09T16:29:47.283Z,129.38
2018-06-09T16:31:40.150Z,129.38
2018-06-09T16:32:40.104Z,129.38
2018-06-09T16:34:32.928Z,123.75
2018-06-09T16:35:32.873Z,123.75
2018-06-09T16:37:25.690Z,123.75
2018-06-09T16:38:25.642Z,123.75
2018-06-09T16:40:18.398Z,118.13
2018-06-09T16:41:18.343Z,118.13
2018-06-09T16:43:11.168Z,106.88
2018-06-09T16:44:11.096Z,106.88
2018-06-09T16:46:03.888Z,106.88
2018-06-09T16:47:03.824Z,118.13
2018-06-09T16:48:56.640Z,118.13
2018-06-09T16:49:56.556Z,118.13
2018-06-09T16:51:50.013Z,112.50
2018-06-09T16:52:49.922Z,112.50
2018-06-09T16:54:42.765Z,112.50
2018-06-09T16:55:42.706Z,112.50
2018-06-09T16:57:35.511Z,112.50
2018-06-09T16:58:35.490Z,112.50
2018-06-09T17:00:28.288Z,112.50
2018-06-09T17:01:28.223Z,112.50
2018-06-09T17:03:21.027Z,101.25
2018-06-09T17:04:20.962Z,95.63
2018-06-09T17:06:13.798Z,101.25
2018-06-09T17:07:13.784Z,101.25
2018-06-09T17:09:06.541Z,101.25
2018-06-09T17:10:06.479Z,101.25
2018-06-09T17:11:59.275Z,95.63
2018-06-09T17:12:59.258Z,95.63
2018-06-09T17:14:52.002Z,95.63
2018-06-09T17:15:51.941Z,95.63
2018-06-09T17:17:44.938Z,95.63
2018-06-09T17:18:44.884Z,95.63
2018-06-09T17:20:37.699Z,95.63
2018-06-09T17:21:37.634Z,95.63
2018-06-09T17:23:30.441Z,84.38
2018-06-09T17:24:30.396Z,84.38
2018-06-09T17:26:23.258Z,78.75
2018-06-09T17:27:23.117Z,78.75
2018-06-09T17:29:16.015Z,78.75
2018-06-09T17:30:15.852Z,78.75
2018-06-09T17:32:08.662Z,73.13
2018-06-09T17:33:08.593Z,61.88
2018-06-09T17:35:01.596Z,56.25
2018-06-09T17:36:01.473Z,56.25
2018-06-09T17:37:54.338Z,50.63
2018-06-09T17:38:54.212Z,50.63
2018-06-09T17:40:47.008Z,50.63
2018-06-09T17:41:46.955Z,61.88
2018-06-09T17:43:39.778Z,61.88
2018-06-09T17:44:39.716Z,61.88
2018-06-09T17:46:32.495Z,50.63
2018-06-09T17:47:32.437Z,56.25
2018-06-09T17:49:25.233Z,56.25
2018-06-09T17:50:25.175Z,56.25
2018-06-09T17:52:17.982Z,56.25
2018-06-09T17:53:17.911Z,50.63
2018-06-09T17:55:10.719Z,39.38
2018-06-09T17:56:10.643Z,39.38
2018-06-09T17:58:03.461Z,39.38
2018-06-09T17:59:03.416Z,39.38
2018-06-09T18:00:56.227Z,39.38
2018-06-09T18:01:56.184Z,39.38
2018-06-09T18:03:49.043Z,45.00
2018-06-09T18:04:48.917Z,45.00
2018-06-09T18:06:41.726Z,39.38
2018-06-09T18:07:41.647Z,39.38
2018-06-09T18:09:34.470Z,33.75